Time;durP1;ratioP1;P1;durP2;ratioP2;P2;SDS_P1;SDS_P2;PMS_P1;PMS_P2;Temp;Humidity;BMP_temperature;BMP_pressure;BME280_temperature;BME280_humidity;BME280_pressure;Samples;Min_cycle;Max_cycle;Signal;HPM_P1;HPM_P2
2022/10/18 00:01:01;;;;;;;;;;;15.20;62.10;;;11.13;100.00;96539.06;5026243;28;19995;-47
2022/10/18 00:03:30;;;;;;;;;;;15.30;62.20;;;11.21;100.00;96543.94;4994652;28;19914;-48
2022/10/18 00:05:56;;;;;;;;;;;15.30;63.00;;;11.24;100.00;96538.94;5026326;28;20371;-47
2022/10/18 00:08:23;;;;;;;;;;;15.40;62.20;;;11.31;100.00;96544.91;5000977;28;19909;-47
2022/10/18 00:10:49;;;;;;;;;;;15.40;62.20;;;11.34;100.00;96538.25;5009893;28;19916;-47
2022/10/18 00:13:23;;;;;;;;;;;15.50;62.30;;;11.34;100.00;96541.75;5008930;28;19951;-47
2022/10/18 00:15:55;;;;;;;;;;;15.50;62.10;;;11.33;100.00;96534.00;4968881;28;19909;-47
2022/10/18 00:18:22;;;;;;;;;;;15.50;62.20;;;11.31;100.00;96538.75;5009636;28;19913;-47
2022/10/18 00:21:05;;;;;;;;;;;15.40;62.10;;;11.32;100.00;96546.53;4990223;28;19956;-48
2022/10/18 00:23:35;;;;;;;;;;;15.50;62.20;;;11.34;100.00;96557.78;4992524;28;20368;-46
2022/10/18 00:26:08;;;;;;;;;;;15.50;62.30;;;11.32;100.00;96561.72;5005286;28;20384;-47
2022/10/18 00:28:35;;;;;;;;;;;15.50;62.30;;;11.28;100.00;96557.91;5009349;28;20375;-47
2022/10/18 00:31:18;;;;;;;;;;;15.50;62.30;;;11.23;100.00;96553.31;5009316;28;19912;-47
2022/10/18 00:33:56;;;;;;;;;;;15.50;62.30;;;11.20;100.00;96558.34;4990621;28;19913;-47
2022/10/18 00:36:24;;;;;;;;;;;15.40;62.30;;;11.15;100.00;96545.72;5024387;28;19916;-47
2022/10/18 00:38:55;;;;;;;;;;;15.40;62.30;;;11.16;100.00;96546.56;5012028;28;19909;-47
2022/10/18 00:41:26;;;;;;;;;;;15.40;62.30;;;11.17;100.00;96551.63;5014092;28;19916;-47
2022/10/18 00:44:02;;;;;;;;;;;15.40;62.40;;;11.17;100.00;96548.97;5011365;28;19909;-52
2022/10/18 00:46:34;;;;;;;;;;;15.40;62.40;;;11.14;100.00;96548.66;5014397;28;20339;-48
2022/10/18 00:49:49;;;;;;;;;;;15.30;62.40;;;11.08;100.00;96550.44;4997816;28;19962;-47
2022/10/18 00:52:30;;;;;;;;;;;15.40;62.50;;;11.06;100.00;96549.84;5015677;28;19966;-48
2022/10/18 00:54:59;;;;;;;;;;;15.30;62.50;;;11.02;100.00;96546.06;5002960;28;19910;-47
2022/10/18 00:57:25;;;;;;;;;;;15.30;62.60;;;10.99;100.00;96544.69;4987632;28;19917;-47
2022/10/18 00:59:54;;;;;;;;;;;15.20;62.60;;;10.99;100.00;96554.56;5021678;28;19909;-47
2022/10/18 01:02:21;;;;;;;;;;;15.20;62.70;;;10.99;100.00;96543.91;4989419;28;19936;-47
2022/10/18 01:04:49;;;;;;;;;;;15.20;62.70;;;10.96;100.00;96534.53;5006661;28;20313;-46
2022/10/18 01:07:24;;;;;;;;;;;15.20;62.70;;;10.96;100.00;96545.19;5014248;28;19913;-47
2022/10/18 01:10:11;;;;;;;;;;;15.20;62.80;;;11.00;100.00;96550.81;5007660;28;20004;-48
2022/10/18 01:13:00;;;;;;;;;;;15.30;62.90;;;10.99;100.00;96552.69;5013735;28;19909;-47
2022/10/18 01:16:10;;;;;;;;;;;15.20;62.90;;;11.02;100.00;96548.75;5004876;28;19947;-47
2022/10/18 01:18:56;;;;;;;;;;;15.30;63.00;;;11.02;100.00;96549.53;5014169;28;20000;-50
2022/10/18 01:21:31;;;;;;;;;;;15.30;63.00;;;11.04;100.00;96542.13;4998649;28;19952;-47
2022/10/18 01:24:22;;;;;;;;;;;15.30;63.00;;;11.07;100.00;96546.97;5012576;28;20259;-47
2022/10/18 01:26:59;;;;;;;;;;;15.30;63.00;;;11.12;100.00;96543.56;5007462;28;19913;-47
2022/10/18 01:30:08;;;;;;;;;;;15.30;63.10;;;11.18;100.00;96542.56;5013804;28;20387;-47
2022/10/18 01:32:57;;;;;;;;;;;15.40;63.20;;;11.18;100.00;96541.78;5005139;28;19956;-47
2022/10/18 01:35:33;;;;;;;;;;;15.40;63.20;;;11.19;100.00;96540.72;5012754;28;19909;-47
2022/10/18 01:38:08;;;;;;;;;;;15.40;63.20;;;11.15;100.00;96539.59;5006748;28;20284;-47
2022/10/18 01:40:39;;;;;;;;;;;15.40;63.20;;;11.18;100.00;96536.44;5001799;28;19920;-47
2022/10/18 01:43:11;;;;;;;;;;;15.40;63.20;;;11.21;100.00;96531.41;5002725;28;20378;-47
2022/10/18 01:45:57;;;;;;;;;;;15.50;63.30;;;11.24;100.00;96524.78;5009615;28;19915;-46
2022/10/18 01:48:23;;;;;;;;;;;15.50;63.30;;;11.23;100.00;96526.66;5012484;28;19909;-46
2022/10/18 01:50:54;;;;;;;;;;;15.50;63.30;;;11.31;100.00;96534.25;5005227;28;19913;-47
2022/10/18 01:53:32;;;;;;;;;;;15.60;63.40;;;11.38;100.00;96535.94;5019341;28;20070;-47
2022/10/18 01:56:34;;;;;;;;;;;15.60;63.40;;;11.43;100.00;96544.78;4996988;28;20333;-48
2022/10/18 01:59:21;;;;;;;;;;;15.70;63.40;;;11.47;100.00;96545.09;5011692;28;19921;-46
2022/10/18 02:02:22;;;;;;;;;;;15.70;63.40;;;11.47;100.00;96540.59;5010246;28;20459;-48
2022/10/18 02:05:18;;;;;;;;;;;15.80;63.50;;;11.53;100.00;96541.44;5021738;28;19936;-49
2022/10/18 02:08:02;;;;;;;;;;;15.80;63.40;;;11.57;100.00;96546.06;5011415;28;20311;-49
2022/10/18 02:10:58;;;;;;;;;;;15.80;63.40;;;11.60;100.00;96551.97;5027188;28;19909;-47
2022/10/18 02:13:37;;;;;;;;;;;15.90;63.40;;;11.62;100.00;96552.50;5011083;28;19978;-52
2022/10/18 02:16:20;;;;;;;;;;;15.90;63.40;;;11.68;100.00;96556.84;4997040;28;20291;-47
2022/10/18 02:18:56;;;;;;;;;;;15.90;63.40;;;11.71;100.00;96551.03;5016454;28;19913;-47
2022/10/18 02:21:27;;;;;;;;;;;15.90;63.30;;;11.73;100.00;96549.72;4983452;28;20386;-47
2022/10/18 02:23:58;;;;;;;;;;;15.90;63.30;;;11.70;100.00;96536.88;5011764;28;20323;-47
2022/10/18 02:26:28;;;;;;;;;;;16.00;63.30;;;11.74;100.00;96535.31;5010308;28;19966;-49
2022/10/18 02:28:54;;;;;;;;;;;16.00;63.30;;;11.72;100.00;96537.44;5011584;28;19934;-47
2022/10/18 02:31:32;;;;;;;;;;;15.90;63.20;;;11.72;100.00;96533.94;5012851;28;19916;-47
2022/10/18 02:34:26;;;;;;;;;;;15.90;63.20;;;11.68;100.00;96536.31;5004475;28;19935;-47
2022/10/18 02:36:58;;;;;;;;;;;15.90;63.20;;;11.63;100.00;96538.13;5012822;28;19913;-47
2022/10/18 02:39:35;;;;;;;;;;;15.90;63.30;;;11.61;100.00;96533.03;4984150;28;19928;-50
2022/10/18 02:42:07;;;;;;;;;;;15.90;63.40;;;11.60;100.00;96534.09;5010928;28;19909;-47
2022/10/18 02:44:38;;;;;;;;;;;15.90;63.40;;;11.58;100.00;96537.00;5004453;28;20279;-47
2022/10/18 02:47:07;;;;;;;;;;;15.90;63.30;;;11.57;100.00;96531.91;5005242;28;19921;-47
2022/10/18 02:49:42;;;;;;;;;;;15.90;63.30;;;11.59;100.00;96540.47;5011272;28;19909;-47
2022/10/18 02:52:11;;;;;;;;;;;15.90;63.30;;;11.58;100.00;96545.00;5005048;28;19909;-47
2022/10/18 02:54:36;;;;;;;;;;;15.90;63.30;;;11.56;100.00;96546.28;5002783;28;19910;-54
2022/10/18 02:57:02;;;;;;;;;;;15.80;63.30;;;11.54;100.00;96548.41;4988233;28;19920;-52
2022/10/18 02:59:28;;;;;;;;;;;15.90;63.40;;;11.52;100.00;96543.31;5010788;28;19909;-49
2022/10/18 03:01:54;;;;;;;;;;;15.80;63.30;;;11.52;100.00;96545.19;5003394;28;19964;-50
2022/10/18 03:04:22;;;;;;;;;;;15.80;63.40;;;11.46;100.00;96541.63;5016490;28;20419;-51
2022/10/18 03:06:48;;;;;;;;;;;15.80;63.30;;;11.45;100.00;96542.69;5010740;28;19920;-52
2022/10/18 03:09:17;;;;;;;;;;;15.80;63.40;;;11.43;100.00;96539.47;5007294;28;19909;-51
2022/10/18 03:11:45;;;;;;;;;;;15.80;63.40;;;11.42;100.00;96537.84;5010027;28;19912;-51
2022/10/18 03:14:23;;;;;;;;;;;15.80;63.50;;;11.45;100.00;96552.56;4989395;28;20045;-52
2022/10/18 03:16:52;;;;;;;;;;;15.80;63.50;;;11.48;100.00;96546.75;5016124;28;20381;-50
2022/10/18 03:19:17;;;;;;;;;;;15.80;63.60;;;11.50;100.00;96547.28;5011969;28;19931;-51
2022/10/18 03:21:49;;;;;;;;;;;15.80;63.60;;;11.54;100.00;96545.75;4997180;28;20252;-50
2022/10/18 03:24:15;;;;;;;;;;;15.80;63.60;;;11.58;100.00;96552.19;5010614;28;20310;-52
2022/10/18 03:26:55;;;;;;;;;;;15.80;63.60;;;11.58;100.00;96547.66;5023330;28;19909;-50
2022/10/18 03:29:21;;;;;;;;;;;15.80;63.60;;;11.62;100.00;96552.50;5011774;28;19909;-54
2022/10/18 03:31:47;;;;;;;;;;;15.80;63.60;;;11.64;100.00;96553.09;4991839;28;19909;-49
2022/10/18 03:34:12;;;;;;;;;;;15.80;63.50;;;11.61;100.00;96558.91;5005826;28;20674;-52
2022/10/18 03:36:41;;;;;;;;;;;15.80;63.50;;;11.55;100.00;96550.03;5009846;28;19920;-53
2022/10/18 03:39:11;;;;;;;;;;;15.80;63.40;;;11.50;100.00;96555.28;4998672;28;19955;-52
2022/10/18 03:41:37;;;;;;;;;;;15.80;63.40;;;11.47;100.00;96550.44;5009718;28;19913;-51
2022/10/18 03:44:06;;;;;;;;;;;15.70;63.30;;;11.41;100.00;96552.25;4995916;28;19924;-53
2022/10/18 03:46:31;;;;;;;;;;;15.70;63.30;;;11.29;100.00;96549.69;5008287;28;20007;-49
2022/10/18 03:48:59;;;;;;;;;;;15.60;63.30;;;11.26;100.00;96550.16;5011706;28;20011;-52
2022/10/18 03:51:25;;;;;;;;;;;15.60;63.30;;;11.25;100.00;96559.22;5004141;28;19938;-51
2022/10/18 03:53:54;;;;;;;;;;;15.50;63.30;;;11.19;100.00;96559.38;5006895;28;19940;-50
2022/10/18 03:56:23;;;;;;;;;;;15.50;63.40;;;11.11;100.00;96563.28;4991090;28;19918;-51
2022/10/18 03:58:55;;;;;;;;;;;15.40;63.40;;;11.01;100.00;96571.13;5020375;28;19913;-55
2022/10/18 04:01:24;;;;;;;;;;;15.40;63.40;;;10.99;100.00;96566.03;4993355;28;19909;-51
2022/10/18 04:03:49;;;;;;;;;;;15.30;63.40;;;10.93;100.00;96576.84;4995207;28;19913;-54
2022/10/18 04:06:24;;;;;;;;;;;15.30;63.50;;;10.89;100.00;96579.19;5010895;28;20329;-54
2022/10/18 04:08:53;;;;;;;;;;;15.20;63.60;;;10.83;100.00;96575.63;5007191;28;19992;-51
2022/10/18 04:11:19;;;;;;;;;;;15.20;63.60;;;10.84;100.00;96571.09;5025919;28;19999;-50
2022/10/18 04:13:45;;;;;;;;;;;15.10;63.60;;;10.78;100.00;96578.25;5008753;28;20368;-52
2022/10/18 04:16:18;;;;;;;;;;;15.10;63.60;;;10.70;100.00;96581.28;4989513;28;19913;-50
2022/10/18 04:18:47;;;;;;;;;;;15.10;63.70;;;10.67;100.00;96584.44;4985915;28;20339;-51
2022/10/18 04:21:13;;;;;;;;;;;15.00;63.70;;;10.64;100.00;96579.56;4988182;28;20443;-50
2022/10/18 04:23:41;;;;;;;;;;;14.90;63.60;;;10.56;100.00;96585.28;5010423;28;19999;-54
2022/10/18 04:26:07;;;;;;;;;;;14.90;63.70;;;10.50;100.00;96584.41;5005528;28;19917;-50
2022/10/18 04:28:38;;;;;;;;;;;14.90;63.70;;;10.45;100.00;96575.50;5010647;28;19917;-53
2022/10/18 04:31:11;;;;;;;;;;;14.90;63.80;;;10.40;100.00;96577.06;5009461;28;19916;-51
2022/10/18 04:33:43;;;;;;;;;;;14.80;63.80;;;10.40;100.00;96578.88;5002056;28;19932;-53
2022/10/18 04:36:15;;;;;;;;;;;14.80;63.90;;;10.36;100.00;96577.75;5010758;28;19955;-52
2022/10/18 04:38:41;;;;;;;;;;;14.70;63.90;;;10.33;100.00;96568.38;5000440;28;19917;-50
2022/10/18 04:41:07;;;;;;;;;;;14.70;63.90;;;10.28;100.00;96565.63;5008336;28;19916;-50
2022/10/18 04:43:35;;;;;;;;;;;14.70;64.00;;;10.25;100.00;96567.91;5005712;28;19909;-52
2022/10/18 04:46:07;;;;;;;;;;;14.60;64.00;;;10.20;100.00;96571.31;4999665;28;20395;-52
2022/10/18 04:48:32;;;;;;;;;;;14.60;64.10;;;10.17;100.00;96572.59;4970234;28;19917;-51
2022/10/18 04:50:58;;;;;;;;;;;14.50;64.10;;;10.15;100.00;96581.84;4995197;28;19909;-51
2022/10/18 04:53:26;;;;;;;;;;;14.50;64.20;;;10.13;100.00;96575.97;5002445;28;19917;-50
2022/10/18 04:55:52;;;;;;;;;;;14.50;64.20;;;10.09;100.00;96591.63;5007283;28;19909;-51
2022/10/18 04:58:28;;;;;;;;;;;14.40;64.20;;;10.05;100.00;96589.66;5015819;28;19920;-51
2022/10/18 05:00:56;;;;;;;;;;;14.40;64.30;;;10.06;100.00;96593.91;5003759;28;19963;-50
2022/10/18 05:03:25;;;;;;;;;;;14.40;64.40;;;10.06;100.00;96593.91;4999749;28;20332;-51
2022/10/18 05:05:57;;;;;;;;;;;14.30;64.40;;;10.07;100.00;96590.22;5010585;28;19909;-51
2022/10/18 05:08:29;;;;;;;;;;;14.40;64.50;;;10.06;100.00;96592.09;4998848;28;20316;-51
2022/10/18 05:10:58;;;;;;;;;;;14.40;64.60;;;10.05;100.00;96598.44;4985387;28;19923;-55
2022/10/18 05:13:24;;;;;;;;;;;14.30;64.50;;;10.05;100.00;96594.97;5009451;28;19948;-52
2022/10/18 05:15:53;;;;;;;;;;;14.30;64.60;;;10.06;100.00;96597.41;4993358;28;19948;-52
2022/10/18 05:18:19;;;;;;;;;;;14.30;64.60;;;10.08;100.00;96597.16;4996750;28;19921;-50
2022/10/18 05:20:46;;;;;;;;;;;14.40;64.80;;;10.11;100.00;96602.81;4993617;28;19909;-52
2022/10/18 05:23:14;;;;;;;;;;;14.40;64.80;;;10.17;100.00;96607.19;5000381;28;20398;-50
2022/10/18 05:25:43;;;;;;;;;;;14.40;64.90;;;10.25;100.00;96606.03;5012486;28;19956;-55
2022/10/18 05:28:11;;;;;;;;;;;14.50;65.00;;;10.30;100.00;96600.81;5009063;28;20383;-52
2022/10/18 05:30:38;;;;;;;;;;;14.60;65.00;;;10.35;100.00;96603.56;5012646;28;19932;-56
2022/10/18 05:33:10;;;;;;;;;;;14.60;65.00;;;10.38;100.00;96596.97;5004507;28;19971;-50
2022/10/18 05:35:36;;;;;;;;;;;14.70;65.00;;;10.44;100.00;96606.69;5012511;28;19913;-51
2022/10/18 05:38:06;;;;;;;;;;;14.70;64.90;;;10.48;100.00;96599.00;5009247;28;19966;-50
2022/10/18 05:40:32;;;;;;;;;;;14.80;65.00;;;10.54;100.00;96600.72;5004328;28;19909;-51
2022/10/18 05:42:58;;;;;;;;;;;14.80;64.90;;;10.56;100.00;96602.09;5012015;28;20283;-53
2022/10/18 05:45:24;;;;;;;;;;;14.80;64.90;;;10.58;100.00;96602.66;4998553;28;19913;-52
2022/10/18 05:47:53;;;;;;;;;;;14.80;64.80;;;10.60;100.00;96607.75;5011173;28;19913;-53
2022/10/18 05:50:19;;;;;;;;;;;14.90;64.90;;;10.58;100.00;96599.19;5007778;28;19913;-53
2022/10/18 05:52:55;;;;;;;;;;;14.90;65.20;;;10.58;100.00;96602.66;5019097;28;19927;-52
2022/10/18 05:55:26;;;;;;;;;;;14.90;64.80;;;10.55;100.00;96599.66;4996517;28;19909;-53
2022/10/18 05:57:55;;;;;;;;;;;14.80;64.70;;;10.52;100.00;96603.63;4991410;28;20372;-48
2022/10/18 06:00:23;;;;;;;;;;;14.80;64.70;;;10.51;100.00;96601.19;4987040;28;19925;-50
2022/10/18 06:02:50;;;;;;;;;;;14.80;64.70;;;10.44;100.00;96596.03;4988878;28;19917;-51
2022/10/18 06:05:16;;;;;;;;;;;14.80;64.70;;;10.45;100.00;96599.50;5002984;28;20004;-51
2022/10/18 06:07:42;;;;;;;;;;;14.80;64.70;;;10.41;100.00;96597.31;4991578;28;20063;-52
2022/10/18 06:10:14;;;;;;;;;;;14.80;64.70;;;10.40;100.00;96601.03;4990837;28;19917;-51
2022/10/18 06:12:42;;;;;;;;;;;14.80;64.70;;;10.40;100.00;96594.84;4990917;28;19910;-54
2022/10/18 06:15:08;;;;;;;;;;;14.80;64.80;;;10.44;100.00;96597.88;4988228;28;19909;-52
2022/10/18 06:17:37;;;;;;;;;;;14.80;64.80;;;10.38;100.00;96605.78;4992675;28;19917;-53
2022/10/18 06:20:07;;;;;;;;;;;14.70;64.80;;;10.36;100.00;96594.53;4991932;28;19945;-51
2022/10/18 06:22:33;;;;;;;;;;;14.80;64.80;;;10.37;100.00;96596.16;4991400;28;19917;-53
2022/10/18 06:24:58;;;;;;;;;;;14.80;64.90;;;10.40;100.00;96601.03;4982172;28;20376;-49
2022/10/18 06:27:27;;;;;;;;;;;14.80;64.80;;;10.45;100.00;96604.81;4988669;28;20338;-50
2022/10/18 06:29:53;;;;;;;;;;;14.80;64.90;;;10.48;100.00;96607.81;4990602;28;19940;-53
2022/10/18 06:32:21;;;;;;;;;;;14.80;64.90;;;10.52;100.00;96618.78;4991319;28;19955;-50
2022/10/18 06:34:52;;;;;;;;;;;14.90;64.90;;;10.50;100.00;96615.53;4991608;28;19909;-53
2022/10/18 06:37:21;;;;;;;;;;;14.90;64.90;;;10.54;100.00;96620.19;4992413;28;20344;-52
2022/10/18 06:39:47;;;;;;;;;;;15.00;65.00;;;10.57;100.00;96625.03;4991549;28;19944;-52
2022/10/18 06:42:13;;;;;;;;;;;15.00;65.00;;;10.62;100.00;96625.13;5007706;28;20435;-53
2022/10/18 06:44:38;;;;;;;;;;;15.00;64.90;;;10.74;100.00;96633.03;5000450;28;20398;-51
2022/10/18 06:47:14;;;;;;;;;;;15.10;65.00;;;10.81;100.00;96635.56;4987756;28;20016;-54
2022/10/18 06:49:39;;;;;;;;;;;15.20;65.00;;;10.87;100.00;96639.94;4985631;28;19976;-50
2022/10/18 06:52:06;;;;;;;;;;;15.30;64.90;;;10.91;100.00;96643.75;4991099;28;19909;-55
2022/10/18 06:54:40;;;;;;;;;;;15.30;64.80;;;10.93;100.00;96641.63;5007577;28;19909;-48
2022/10/18 06:57:08;;;;;;;;;;;15.40;64.80;;;10.98;100.00;96638.25;5006130;28;19913;-51
2022/10/18 06:59:40;;;;;;;;;;;15.50;64.80;;;11.03;100.00;96638.31;4992244;28;20003;-55
2022/10/18 07:02:13;;;;;;;;;;;15.50;64.70;;;11.10;100.00;96642.47;5006499;28;19910;-53
2022/10/18 07:04:39;;;;;;;;;;;15.60;64.70;;;11.23;100.00;96635.19;4992617;28;20008;-51
2022/10/18 07:07:10;;;;;;;;;;;15.70;64.80;;;11.30;100.00;96636.63;4991704;28;20003;-51
2022/10/18 07:09:39;;;;;;;;;;;15.80;64.80;;;11.40;100.00;96636.00;4994506;28;20372;-52
2022/10/18 07:12:16;;;;;;;;;;;15.90;64.70;;;11.54;100.00;96642.63;4974686;28;19922;-55
2022/10/18 07:14:48;;;;;;;;;;;16.00;64.60;;;11.69;100.00;96644.69;4991068;28;19909;-55
2022/10/18 07:17:13;;;;;;;;;;;16.20;64.60;;;11.85;100.00;96645.75;4974165;28;19921;-53
2022/10/18 07:19:47;;;;;;;;;;;16.40;64.60;;;12.10;100.00;96650.63;4990645;28;20394;-52
2022/10/18 07:22:13;;;;;;;;;;;16.60;64.50;;;12.38;100.00;96646.94;4989875;28;19964;-55
2022/10/18 07:24:39;;;;;;;;;;;16.90;64.50;;;12.68;100.00;96651.81;4992207;28;19909;-54
2022/10/18 07:27:05;;;;;;;;;;;17.30;64.30;;;13.01;99.04;96654.53;4980655;28;19918;-53
2022/10/18 07:29:37;;;;;;;;;;;17.60;64.10;;;13.38;96.73;96651.91;4987224;28;20365;-54
2022/10/18 07:32:03;;;;;;;;;;;18.00;63.80;;;13.71;94.84;96650.03;4981573;28;19955;-52
2022/10/18 07:34:29;;;;;;;;;;;18.40;63.40;;;14.00;91.44;96651.25;4991771;28;20307;-54
2022/10/18 07:36:55;;;;;;;;;;;18.80;63.10;;;14.22;88.84;96652.97;5006379;28;19921;-52
2022/10/18 07:39:23;;;;;;;;;;;19.00;62.70;;;14.45;85.90;96654.41;4990702;28;20440;-54
2022/10/18 07:41:53;;;;;;;;;;;19.30;62.30;;;14.64;84.96;96652.09;4990320;28;20319;-51
2022/10/18 07:44:18;;;;;;;;;;;19.50;62.00;;;14.82;83.52;96651.56;4973261;28;19910;-52
2022/10/18 07:46:44;;;;;;;;;;;19.70;61.60;;;14.93;83.08;96653.22;4989899;28;19920;-52
2022/10/18 07:49:10;;;;;;;;;;;19.90;61.30;;;15.12;82.92;96656.19;4991417;28;20364;-51
2022/10/18 07:51:35;;;;;;;;;;;20.10;61.00;;;15.45;83.33;96657.56;4987988;28;19909;-55
2022/10/18 07:54:02;;;;;;;;;;;20.40;60.70;;;15.89;80.87;96662.38;4990408;28;19923;-51
2022/10/18 07:56:27;;;;;;;;;;;20.90;60.30;;;16.34;79.34;96659.81;4988432;28;19909;-52
2022/10/18 07:58:55;;;;;;;;;;;21.30;59.90;;;16.83;76.56;96665.25;5006262;28;19916;-50
2022/10/18 08:01:25;;;;;;;;;;;21.90;59.80;;;17.27;74.31;96661.75;5006642;28;19910;-51
2022/10/18 08:03:54;;;;;;;;;;;22.30;59.40;;;17.72;71.69;96662.44;4991995;28;20427;-48
2022/10/18 08:06:22;;;;;;;;;;;22.80;59.00;;;18.21;71.34;96666.81;4990765;28;19933;-49
2022/10/18 08:08:51;;;;;;;;;;;23.30;58.60;;;18.65;68.02;96663.06;4989270;28;19940;-52
2022/10/18 08:11:23;;;;;;;;;;;23.80;58.30;;;18.93;66.27;96657.84;4991209;28;19952;-49
2022/10/18 08:13:52;;;;;;;;;;;24.30;57.80;;;19.25;65.79;96665.22;5006074;28;19910;-50
2022/10/18 08:16:30;;;;;;;;;;;24.70;57.30;;;19.56;63.09;96662.03;4990834;28;19909;-52
2022/10/18 08:18:59;;;;;;;;;;;25.20;56.80;;;19.85;64.09;96668.03;4990166;28;19924;-49
2022/10/18 08:21:25;;;;;;;;;;;25.60;56.60;;;20.30;62.05;96670.16;4990334;28;20439;-53
2022/10/18 08:23:54;;;;;;;;;;;26.00;56.00;;;20.73;61.08;96664.47;4991197;28;20356;-53
2022/10/18 08:26:22;;;;;;;;;;;26.50;55.60;;;21.12;59.20;96661.19;4989670;28;19909;-51
2022/10/18 08:28:49;;;;;;;;;;;26.80;55.20;;;21.39;58.42;96667.63;5006387;28;19910;-54
2022/10/18 08:31:18;;;;;;;;;;;27.20;54.80;;;21.74;58.27;96665.94;5006182;28;19914;-55
2022/10/18 08:33:46;;;;;;;;;;;27.60;54.30;;;22.04;56.38;96671.69;4976546;28;20287;-54
2022/10/18 08:36:15;;;;;;;;;;;28.00;53.90;;;22.17;55.91;96668.91;4990878;28;19977;-56
2022/10/18 08:38:48;;;;;;;;;;;28.20;53.40;;;22.36;54.80;96670.59;4989684;28;19921;-51
2022/10/18 08:41:41;;;;;;;;;;;28.50;52.90;;;22.63;53.90;96673.06;4989445;28;19967;-54
2022/10/18 08:44:32;;;;;;;;;;;28.80;52.40;;;23.03;53.43;96670.31;4990036;28;20016;-55
2022/10/18 08:47:25;;;;;;;;;;;29.00;52.00;;;23.12;53.01;96675.72;4990809;28;19917;-56
2022/10/18 08:50:00;;;;;;;;;;;29.20;51.40;;;23.28;52.60;96668.72;5005636;28;19909;-51
2022/10/18 08:55:14;;;;;;;;;;;29.60;50.80;;;23.20;52.55;96663.28;5018183;28;19927;-51
2022/10/18 08:57:47;;;;;;;;;;;29.70;50.20;;;23.12;52.18;96666.78;5008795;28;19917;-51
2022/10/18 09:00:26;;;;;;;;;;;29.80;50.00;;;23.08;53.21;96653.81;4972616;28;19975;-48
2022/10/18 09:03:28;;;;;;;;;;;29.80;50.00;;;23.32;52.05;96656.06;5002811;28;19936;-52
2022/10/18 09:06:24;;;;;;;;;;;29.90;49.30;;;23.45;51.48;96664.38;5012810;28;19909;-48
2022/10/18 09:09:27;;;;;;;;;;;30.00;49.20;;;23.52;50.76;96657.34;4998099;28;19916;-48
2022/10/18 09:12:44;;;;;;;;;;;30.10;48.90;;;23.77;50.84;96654.91;5009791;28;20287;-48
2022/10/18 09:15:59;;;;;;;;;;;30.30;48.80;;;23.71;51.25;96657.00;4993425;28;19992;-48
2022/10/18 09:19:34;;;;;;;;;;;30.40;48.30;;;23.80;50.01;96648.03;5012777;28;20356;-49
2022/10/18 09:22:16;;;;;;;;;;;30.50;48.00;;;23.90;49.99;96651.19;4998735;28;19909;-48
2022/10/18 09:25:12;;;;;;;;;;;30.60;47.50;;;23.82;50.12;96649.31;4995519;28;19913;-48
2022/10/18 09:28:41;;;;;;;;;;;30.70;47.40;;;24.14;50.46;96638.97;4996788;28;20400;-48
2022/10/18 09:31:38;;;;;;;;;;;30.80;47.00;;;24.33;48.60;96642.09;5012739;28;20368;-49
2022/10/18 09:34:47;;;;;;;;;;;30.80;46.80;;;24.64;48.43;96649.19;5017883;28;20484;-48
2022/10/18 09:37:18;;;;;;;;;;;31.00;46.80;;;24.97;47.71;96657.44;5012013;28;19924;-48
2022/10/18 09:39:48;;;;;;;;;;;31.30;46.80;;;24.63;48.11;96648.38;5021358;28;19962;-50
2022/10/18 09:42:46;;;;;;;;;;;31.50;46.50;;;24.73;48.17;96649.91;5012506;28;19955;-48
2022/10/18 09:45:33;;;;;;;;;;;31.70;46.30;;;25.24;46.94;96649.91;5013370;28;20283;-48
2022/10/18 09:48:27;;;;;;;;;;;31.90;46.00;;;25.54;46.39;96650.59;4994745;28;19909;-49
2022/10/18 09:51:21;;;;;;;;;;;32.20;45.80;;;25.73;46.51;96644.63;5010241;28;20360;-51
2022/10/18 09:54:45;;;;;;;;;;;32.40;45.50;;;25.78;46.66;96641.69;4982775;28;820403;-50
2022/10/18 09:57:32;;;;;;;;;;;32.70;45.20;;;25.91;45.61;96640.59;5021110;28;19952;-53
2022/10/18 10:00:02;;;;;;;;;;;32.90;44.80;;;25.58;45.35;96648.81;5012204;28;19940;-52
2022/10/18 10:02:43;;;;;;;;;;;33.00;44.30;;;25.54;46.90;96639.69;5014931;28;19985;-51
2022/10/18 10:05:15;;;;;;;;;;;33.10;44.40;;;25.79;45.62;96644.09;5019116;28;19999;-51
2022/10/18 10:07:47;;;;;;;;;;;33.10;43.70;;;25.95;45.29;96638.81;4995275;28;19948;-48
2022/10/18 10:10:24;;;;;;;;;;;33.20;43.50;;;26.04;44.88;96638.69;5011292;28;20018;-48
2022/10/18 10:13:21;;;;;;;;;;;33.30;43.40;;;26.25;44.94;96639.41;5013267;28;19928;-51
2022/10/18 10:15:59;;;;;;;;;;;33.40;43.10;;;26.10;45.56;96636.56;5006243;28;19955;-48
2022/10/18 10:18:34;;;;;;;;;;;33.60;42.80;;;26.15;44.77;96639.06;4995647;28;19913;-48
2022/10/18 10:21:14;;;;;;;;;;;33.60;42.30;;;26.19;44.55;96631.78;4991553;28;19909;-49
2022/10/18 10:23:58;;;;;;;;;;;33.70;42.00;;;26.51;44.69;96638.31;4992312;28;19965;-50
2022/10/18 10:26:32;;;;;;;;;;;33.70;42.00;;;26.90;43.95;96633.28;4998771;28;19961;-50
2022/10/18 10:28:59;;;;;;;;;;;33.90;42.10;;;26.91;43.88;96635.66;5011639;28;19909;-48
2022/10/18 10:31:32;;;;;;;;;;;34.20;42.10;;;26.80;43.05;96629.06;4995010;28;20000;-48
2022/10/18 10:34:19;;;;;;;;;;;34.40;41.80;;;27.02;43.19;96632.44;5010628;28;19912;-48
2022/10/18 10:36:48;;;;;;;;;;;34.60;41.60;;;26.91;42.41;96626.66;4995163;28;20027;-48
2022/10/18 10:39:18;;;;;;;;;;;34.70;41.10;;;27.15;42.42;96626.63;5011799;28;19913;-48
2022/10/18 10:42:04;;;;;;;;;;;34.80;40.90;;;27.37;42.35;96622.56;4994864;28;20031;-49
2022/10/18 10:44:35;;;;;;;;;;;35.00;40.70;;;27.43;41.39;96632.09;5012536;28;19909;-48
2022/10/18 10:47:30;;;;;;;;;;;35.30;40.40;;;27.52;40.66;96626.50;5011368;28;19958;-49
2022/10/18 10:50:08;;;;;;;;;;;35.50;40.10;;;27.61;41.04;96640.00;5010378;28;19923;-49
2022/10/18 10:52:34;;;;;;;;;;;35.60;39.60;;;27.68;41.02;96629.25;4995643;28;20004;-51
2022/10/18 10:55:02;;;;;;;;;;;35.80;39.60;;;27.53;40.36;96619.06;5011277;28;20015;-49
2022/10/18 10:57:28;;;;;;;;;;;35.90;39.40;;;27.63;40.34;96626.78;5001348;28;19920;-48
2022/10/18 10:59:58;;;;;;;;;;;36.10;39.20;;;27.83;40.38;96614.84;4976051;28;19963;-49
2022/10/18 11:02:35;;;;;;;;;;;36.10;39.00;;;27.75;40.37;96604.81;4993731;28;20375;-48
2022/10/18 11:05:28;;;;;;;;;;;36.30;38.90;;;27.34;41.07;96608.78;5011639;28;19913;-49
2022/10/18 11:08:04;;;;;;;;;;;36.20;38.30;;;27.59;40.87;96612.19;4988455;28;20010;-50
2022/10/18 11:11:08;;;;;;;;;;;36.10;38.00;;;28.03;40.31;96606.72;4991048;28;19955;-48
2022/10/18 11:14:22;;;;;;;;;;;36.10;37.90;;;27.61;40.56;96604.41;4918511;28;24800;-52
2022/10/18 11:17:15;;;;;;;;;;;36.30;38.00;;;27.64;40.92;96590.84;5010766;28;19984;-48
2022/10/18 11:20:11;;;;;;;;;;;36.30;37.90;;;27.55;40.93;96592.97;4978277;28;19909;-48
2022/10/18 11:22:54;;;;;;;;;;;36.30;37.80;;;27.64;40.51;96579.09;4990658;28;19983;-48
2022/10/18 11:25:27;;;;;;;;;;;36.30;37.70;;;27.24;41.08;96580.00;5010341;28;19909;-49
2022/10/18 11:28:41;;;;;;;;;;;36.20;37.60;;;27.58;41.19;96580.53;5002323;28;19909;-51
2022/10/18 11:31:37;;;;;;;;;;;36.20;37.50;;;27.77;40.85;96577.94;4992510;28;19959;-50
2022/10/18 11:34:33;;;;;;;;;;;36.10;37.20;;;27.86;41.05;96575.00;5008871;28;19913;-49
2022/10/18 11:37:13;;;;;;;;;;;36.10;37.10;;;28.18;40.15;96573.06;5011311;28;19913;-52
2022/10/18 11:40:12;;;;;;;;;;;36.30;37.20;;;28.28;39.91;96569.78;4981654;28;19917;-49
2022/10/18 11:43:48;;;;;;;;;;;36.50;37.10;;;27.66;39.45;96563.13;5010127;28;19973;-49
2022/10/18 11:46:26;;;;;;;;;;;36.60;36.40;;;27.99;39.99;96560.09;4955183;28;20652;-48
2022/10/18 11:49:06;;;;;;;;;;;36.50;36.10;;;27.95;40.25;96552.94;4990157;28;20407;-49
2022/10/18 11:51:38;;;;;;;;;;;36.60;35.90;;;27.99;38.85;96559.31;5004450;28;20015;-56